^^
Grace C. Lehan Memorial Weather Station Historical Data
Daily Summary for January 19, 2022 Units:  English    Metric   Both
Daily Weekly Monthly Yearly
  High: Low: Average:
Temperature: 47.2 °F 19.1 °F 34.2 °F
Dew Point: 35.2 °F 11.6 °F 26.1 °F
Humidity: 81% 56.7% 72%
Wind Speed: 7.7mph 0mph 1.3mph
Wind Gust: 23mph - -
Wind- - SSW
Pressure: 30.17 in 29.88 in -
Precipitation: 0.00 in    
 
 
Tabular Data for January 19, 2022
Time Temperature Dew Point Pressure Wind Wind Speed Wind Gust Humidity Rainfall Rate (Hourly) solar
00:04 20.5 °F 11.9 °F 30.15 in Calm     69% 0.00 in 0 W/m2
00:09 20.3 °F 11.8 °F 30.16 in Calm     69% 0.00 in 0 W/m2
00:14 20.2 °F 12 °F 30.17 in Calm     70% 0.00 in 0 W/m2
00:19 20.1 °F 11.9 °F 30.17 in Calm     69.8% 0.00 in 0 W/m2
00:24 20.1 °F 11.6 °F 30.17 in Calm     69% 0.00 in 0 W/m2
00:29 20.1 °F 11.6 °F 30.16 in Calm     69.3% 0.00 in 0 W/m2
00:34 20 °F 12 °F 30.16 in Calm     70.5% 0.00 in 0 W/m2
00:39 19.9 °F 12 °F 30.16 in Calm     71% 0.00 in 0 W/m2
00:44 19.8 °F 12 °F 30.15 in Calm     71.4% 0.00 in 0 W/m2
00:49 19.7 °F 12.1 °F 30.15 in Calm     72% 0.00 in 0 W/m2
00:54 19.5 °F 12.1 °F 30.15 in Calm     72.2% 0.00 in 0 W/m2
00:59 19.5 °F 12.2 °F 30.15 in Calm     73% 0.00 in 0 W/m2
01:04 19.4 °F 12.1 °F 30.15 in Calm     73% 0.00 in 0 W/m2
01:09 19.3 °F 12.1 °F 30.14 in Calm     73.1% 0.00 in 0 W/m2
01:14 19.2 °F 12.3 °F 30.14 in Calm     74% 0.00 in 0 W/m2
01:19 19.1 °F 12.4 °F 30.14 in Calm     74.7% 0.00 in 0 W/m2
01:24 19.1 °F 12.5 °F 30.14 in Calm     75% 0.00 in 0 W/m2
01:29 19.1 °F 12.8 °F 30.14 in Calm     76% 0.00 in 0 W/m2
01:34 19.2 °F 13.1 °F 30.14 in Calm     76.7% 0.00 in 0 W/m2
01:39 19.2 °F 13.2 °F 30.14 in Calm     77% 0.00 in 0 W/m2
01:44 19.2 °F 13.2 °F 30.14 in Calm     77% 0.00 in 0 W/m2
01:49 19.2 °F 13.2 °F 30.14 in Calm     77% 0.00 in 0 W/m2
01:54 19.2 °F 13.2 °F 30.15 in Calm     77% 0.00 in 0 W/m2
01:59 19.2 °F 13.2 °F 30.15 in Calm     77% 0.00 in 0 W/m2
02:04 19.2 °F 13.4 °F 30.16 in Calm     77.8% 0.00 in 0 W/m2
02:09 19.2 °F 13.5 °F 30.16 in Calm     78% 0.00 in 0 W/m2
02:14 19.2 °F 13.6 °F 30.17 in Calm     78.4% 0.00 in 0 W/m2
02:19 19.2 °F 13.7 °F 30.17 in Calm     79% 0.00 in 0 W/m2
02:24 19.2 °F 13.7 °F 30.17 in Calm     79% 0.00 in 0 W/m2
02:29 19.1 °F 13.7 °F 30.17 in Calm     79% 0.00 in 0 W/m2
02:34 19.1 °F 13.6 °F 30.16 in Calm     78.8% 0.00 in 0 W/m2
02:39 19.2 °F 13.5 °F 30.17 in Calm     78% 0.00 in 0 W/m2
02:44 19.2 °F 13.5 °F 30.17 in Calm     78% 0.00 in 0 W/m2
02:49 19.2 °F 13.5 °F 30.17 in Calm     78% 0.00 in 0 W/m2
02:54 19.3 °F 13.5 °F 30.16 in Calm     78% 0.00 in 0 W/m2
02:58 19.3 °F 13.6 °F 30.17 in Calm     78% 0.00 in 0 W/m2
03:04 19.4 °F 13.7 °F 30.17 in Calm     78% 0.00 in 0 W/m2
03:09 19.5 °F 13.8 °F 30.16 in Calm     78% 0.00 in 0 W/m2
03:14 19.6 °F 13.8 °F 30.16 in Calm     77.7% 0.00 in 0 W/m2
03:19 19.7 °F 13.7 °F 30.16 in Calm     77% 0.00 in 0 W/m2
03:24 19.7 °F 13.7 °F 30.17 in Calm     77% 0.00 in 0 W/m2
03:29 19.7 °F 13.7 °F 30.17 in Calm     77.2% 0.00 in 0 W/m2
03:34 19.6 °F 13.9 °F 30.16 in Calm     78% 0.00 in 0 W/m2
03:39 19.6 °F 13.9 °F 30.16 in Calm     78.2% 0.00 in 0 W/m2
03:44 19.5 °F 14.1 °F 30.15 in Calm     79% 0.00 in 0 W/m2
03:49 19.5 °F 14.1 °F 30.15 in Calm     79% 0.00 in 0 W/m2
03:54 19.4 °F 14.3 °F 30.16 in Calm     80% 0.00 in 0 W/m2
03:59 19.4 °F 14.3 °F 30.15 in Calm     80% 0.00 in 0 W/m2
04:00 19.4 °F 14.3 °F 30.15 in Calm     80% 0.00 in 0 W/m2
04:09 19.4 °F 14.3 °F 30.15 in Calm     80% 0.00 in 0 W/m2
04:14 19.5 °F 14.3 °F 30.14 in Calm     80% 0.00 in 0 W/m2
04:19 19.6 °F 14.7 °F 30.14 in Calm     80.9% 0.00 in 0 W/m2
04:24 19.7 °F 14.8 °F 30.15 in Calm     81% 0.00 in 0 W/m2
04:29 19.7 °F 14.9 °F 30.15 in Calm     81% 0.00 in 0 W/m2
04:34 19.9 °F 15 °F 30.14 in Calm     81% 0.00 in 0 W/m2
04:39 20.1 °F 15.2 °F 30.14 in Calm     81% 0.00 in 0 W/m2
04:44 20.2 °F 15.3 °F 30.13 in Calm     81% 0.00 in 0 W/m2
04:49 20.3 °F 15.5 °F 30.13 in Calm     81% 0.00 in 0 W/m2
04:54 20.4 °F 15.5 °F 30.13 in Calm     81% 0.00 in 0 W/m2
04:59 20.5 °F 15.6 °F 30.13 in Calm     81% 0.00 in 0 W/m2
05:04 20.6 °F 15.6 °F 30.13 in Calm     80.5% 0.00 in 0 W/m2
05:09 20.6 °F 15.4 °F 30.13 in Calm     80% 0.00 in 0 W/m2
05:14 20.6 °F 15.5 °F 30.12 in Calm     80% 0.00 in 0 W/m2
05:19 20.7 °F 15.5 °F 30.12 in Calm     80% 0.00 in 0 W/m2
05:24 20.8 °F 15.5 °F 30.12 in Calm     79.5% 0.00 in 0 W/m2
05:29 20.9 °F 15.4 °F 30.11 in Calm     79% 0.00 in 0 W/m2
05:34 21 °F 15.3 °F 30.11 in Calm     78.4% 0.00 in 0 W/m2
05:39 21.1 °F 15.4 °F 30.12 in Calm     78.2% 0.00 in 0 W/m2
05:44 21.2 °F 15.4 °F 30.12 in Calm     78% 0.00 in 0 W/m2
05:49 21.3 °F 15.5 °F 30.12 in Calm     78% 0.00 in 0 W/m2
05:54 21.4 °F 15.6 °F 30.12 in Calm     78% 0.00 in 0 W/m2
05:59 21.5 °F 15.7 °F 30.12 in Calm     78% 0.00 in 0 W/m2
06:04 21.6 °F 15.8 °F 30.12 in Calm     78% 0.00 in 0 W/m2
06:09 21.7 °F 15.7 °F 30.12 in Calm     77.2% 0.00 in 0 W/m2
06:14 21.8 °F 15.5 °F 30.12 in Calm     76.3% 0.00 in 0 W/m2
06:19 21.9 °F 15.5 °F 30.12 in Calm     76% 0.00 in 0 W/m2
06:24 22 °F 15.6 °F 30.12 in Calm     76% 0.00 in 0 W/m2
06:29 22.1 °F 15.7 °F 30.12 in Calm     76% 0.00 in 0 W/m2
06:34 22.2 °F 15.8 °F 30.12 in Calm     76% 0.00 in 0 W/m2
06:39 22.3 °F 15.9 °F 30.12 in Calm     76% 0.00 in 0 W/m2
06:44 22.4 °F 16 °F 30.12 in Calm     76% 0.00 in 0 W/m2
06:49 22.5 °F 16.1 °F 30.12 in Calm     76% 0.00 in 0 W/m2
06:54 22.6 °F 16.2 °F 30.12 in Calm     76% 0.00 in 0 W/m2
06:59 22.8 °F 16.4 °F 30.11 in Calm     76% 0.00 in 0 W/m2
07:04 23.1 °F 16.6 °F 30.11 in Calm     75.7% 0.00 in 0 W/m2
07:09 23.3 °F 16.6 °F 30.11 in Calm     75% 0.00 in 5 W/m2
07:14 23.5 °F 16.7 °F 30.11 in Calm     75% 0.00 in 9 W/m2
07:19 23.6 °F 16.8 °F 30.11 in Calm     75% 0.00 in 16 W/m2
07:24 23.6 °F 17 °F 30.10 in Calm     75.3% 0.00 in 23 W/m2
07:29 23.8 °F 17.3 °F 30.11 in Calm   1 mph 76% 0.00 in 28 W/m2
07:34 24 °F 17.5 °F 30.10 in West 0.5 mph 2 mph 76% 0.00 in 28 W/m2
07:39 24.2 °F 17.7 °F 30.11 in West 0.2 mph 2 mph 76% 0.00 in 32 W/m2
07:44 24.4 °F 18.1 °F 30.11 in Calm   2 mph 76.6% 0.00 in 35 W/m2
07:49 24.6 °F 18.5 °F 30.10 in Calm   2 mph 77% 0.00 in 47 W/m2
07:54 24.9 °F 18.7 °F 30.11 in West 0.1 mph 2 mph 77% 0.00 in 58 W/m2
07:59 25.3 °F 19.4 °F 30.11 in West 0.5 mph 2 mph 77.9% 0.00 in 58 W/m2
08:09 26.1 °F 19.9 °F 30.10 in West 0.2 mph 1 mph 77% 0.00 in 58 W/m2
08:14 26.3 °F 20.1 °F 30.10 in Calm   1 mph 77% 0.00 in 47 W/m2
08:19 26.5 °F 20.3 °F 30.10 in Calm   1 mph 76.9% 0.00 in 60 W/m2
08:24 26.7 °F 20.2 °F 30.10 in Calm   1 mph 76.1% 0.00 in 76 W/m2
08:29 26.9 °F 20.7 °F 30.10 in Calm   1 mph 77% 0.00 in 77 W/m2
08:34 27.1 °F 20.9 °F 30.10 in Calm   1 mph 77.1% 0.00 in 84 W/m2
08:39 27.3 °F 21.1 °F 30.09 in West 0.1 mph 2 mph 77.1% 0.00 in 86 W/m2
08:44 27.6 °F 21.6 °F 30.09 in West 0.2 mph 2 mph 77.9% 0.00 in 91 W/m2
08:49 27.9 °F 22 °F 30.09 in West 0.4 mph 2 mph 78% 0.00 in 107 W/m2
08:54 28.2 °F 22.2 °F 30.08 in West 0.4 mph 2 mph 78% 0.00 in 130 W/m2
08:59 28.5 °F 22.5 °F 30.09 in Calm   2 mph 77.9% 0.00 in 130 W/m2
09:04 28.8 °F 22.5 °F 30.08 in Calm   2 mph 77% 0.00 in 102 W/m2
09:09 29.1 °F 22.8 °F 30.08 in West 0.1 mph 1 mph 77.2% 0.00 in 107 W/m2
09:14 29.3 °F 23 °F 30.08 in West 0.3 mph 2 mph 77% 0.00 in 109 W/m2
09:19 29.5 °F 23.2 °F 30.08 in West 1 mph 4 mph 77% 0.00 in 98 W/m2
09:24 29.7 °F 23.4 °F 30.08 in West 0.2 mph 4 mph 77% 0.00 in 95 W/m2
09:29 29.8 °F 23.7 °F 30.08 in West 0.8 mph 4 mph 77.5% 0.00 in 88 W/m2
09:34 30 °F 24 °F 30.08 in West 0.3 mph 4 mph 78% 0.00 in 93 W/m2
09:39 30.3 °F 24.4 °F 30.07 in West 0.1 mph 2 mph 78.2% 0.00 in 102 W/m2
09:44 30.6 °F 24.9 °F 30.07 in West 0.2 mph 2 mph 79% 0.00 in 109 W/m2
09:49 31 °F 25.3 °F 30.07 in West 0.1 mph 2 mph 79% 0.00 in 116 W/m2
09:54 31.5 °F 25.8 °F 30.07 in West 0.3 mph 2 mph 79% 0.00 in 120 W/m2
09:59 32.1 °F 26.3 °F 30.07 in West 0.3 mph 2 mph 79% 0.00 in 123 W/m2
10:04 32.6 °F 26.8 °F 30.06 in WSW 1.2 mph 4 mph 78.8% 0.00 in 130 W/m2
10:09 33.2 °F 27.1 °F 30.06 in WSW 1.1 mph 5 mph 78% 0.00 in 148 W/m2
10:14 33.8 °F 27.6 °F 30.06 in SW 2.1 mph 7 mph 78% 0.00 in 156 W/m2
10:19 34.4 °F 28.3 °F 30.05 in SSW 1 mph 7 mph 78% 0.00 in 167 W/m2
10:24 35.1 °F 28.7 °F 30.05 in SSW 1.2 mph 7 mph 77.3% 0.00 in 169 W/m2
10:29 35.8 °F 29.3 °F 30.04 in SSW 1.2 mph 7 mph 77% 0.00 in 255 W/m2
10:34 36.6 °F 29.8 °F 30.04 in SSW 0.9 mph 7 mph 76.2% 0.00 in 353 W/m2
10:39 37.6 °F 30.5 °F 30.04 in SW 3.4 mph 12 mph 75.4% 0.00 in 462 W/m2
10:44 38.9 °F 31.1 °F 30.04 in SW 4.2 mph 14 mph 73.2% 0.00 in 462 W/m2
10:49 40.2 °F 31.4 °F 30.03 in SW 4.4 mph 14 mph 70.6% 0.00 in 508 W/m2
10:54 41 °F 31.4 °F 30.03 in SSW 5.2 mph 14 mph 68.4% 0.00 in 499 W/m2
10:59 41.4 °F 31.3 °F 30.02 in SW 4.6 mph 16 mph 67% 0.00 in 499 W/m2
11:04 41.7 °F 31.4 °F 30.02 in SW 4.6 mph 16 mph 66.3% 0.00 in 417 W/m2
11:09 42.1 °F 31.3 °F 30.01 in SSW 4.2 mph 13 mph 65.4% 0.00 in 316 W/m2
11:14 42.4 °F 31.2 °F 30.01 in SSW 4.8 mph 13 mph 64.5% 0.00 in 387 W/m2
11:19 42.5 °F 31.2 °F 30.01 in SSW 4.1 mph 13 mph 63.9% 0.00 in 466 W/m2
11:24 42.6 °F 30.9 °F 30.00 in SSW 5.6 mph 13 mph 63% 0.00 in 366 W/m2
11:29 42.7 °F 31 °F 30.00 in SSW 5.4 mph 14 mph 63% 0.00 in 246 W/m2
11:34 42.7 °F 31.1 °F 29.99 in SSW 4.7 mph 14 mph 63.2% 0.00 in 297 W/m2
11:39 42.9 °F 31.2 °F 29.99 in SSW 5.7 mph 13 mph 63% 0.00 in 406 W/m2
11:44 43 °F 31.3 °F 29.99 in SSW 3.8 mph 13 mph 63% 0.00 in 390 W/m2
11:49 43.2 °F 31.5 °F 29.98 in SSW 5 mph 13 mph 62.9% 0.00 in 223 W/m2
11:54 43.4 °F 31.7 °F 29.98 in SSW 4.1 mph 13 mph 63% 0.00 in 376 W/m2
11:59 43.6 °F 31.8 °F 29.98 in SW 2.9 mph 13 mph 63% 0.00 in 376 W/m2
12:00 43.7 °F 32 °F 29.98 in SSW 5 mph 13 mph 63% 0.00 in 246 W/m2
12:09 44.1 °F 32 °F 29.97 in SW 5.9 mph 15 mph 62% 0.00 in 385 W/m2
12:14 44.4 °F 31.8 °F 29.96 in SW 5.3 mph 18 mph 61.2% 0.00 in 223 W/m2
12:19 44.3 °F 31.4 °F 29.96 in SSW 6 mph 18 mph 60.4% 0.00 in 193 W/m2
12:24 44 °F 31.4 °F 29.95 in South 4.2 mph 18 mph 60.8% 0.00 in 220 W/m2
12:29 44 °F 31.4 °F 29.94 in SW 5.1 mph 18 mph 61% 0.00 in 246 W/m2
12:34 44.2 °F 31.6 °F 29.94 in SW 2.9 mph 18 mph 61% 0.00 in 279 W/m2
12:39 44.5 °F 31.5 °F 29.94 in SW 6.5 mph 17 mph 60% 0.00 in 211 W/m2
12:44 44.6 °F 31.4 °F 29.94 in SW 6.4 mph 17 mph 59.5% 0.00 in 260 W/m2
12:49 44.8 °F 31.7 °F 29.93 in SW 6.2 mph 17 mph 59.8% 0.00 in 313 W/m2
12:54 45.2 °F 32 °F 29.93 in SSW 7.5 mph 18 mph 59.7% 0.00 in 327 W/m2
12:59 45.4 °F 31.9 °F 29.92 in SSW 5.6 mph 19 mph 58.9% 0.00 in 246 W/m2
13:04 45.5 °F 32.7 °F 29.93 in SW 5.8 mph 19 mph 60.7% 0.00 in 229 W/m2
13:09 45.5 °F 32.4 °F 29.93 in SW 5.3 mph 14 mph 59.8% 0.00 in 229 W/m2
13:14 45.6 °F 32.4 °F 29.93 in SW 4.3 mph 23 mph 59.9% 0.00 in 248 W/m2
13:19 45.7 °F 32.4 °F 29.92 in SSW 7.7 mph 23 mph 59.5% 0.00 in 243 W/m2
13:24 45.6 °F 32.4 °F 29.92 in SW 4.2 mph 23 mph 59.7% 0.00 in 209 W/m2
13:29 45.6 °F 32.6 °F 29.91 in SSW 5.5 mph 23 mph 60.1% 0.00 in 207 W/m2
13:34 45.5 °F 32.5 °F 29.91 in SSW 5.8 mph 23 mph 60.2% 0.00 in 193 W/m2
13:39 45.5 °F 32.4 °F 29.91 in SW 6.7 mph 17 mph 60% 0.00 in 214 W/m2
13:44 45.4 °F 32.4 °F 29.91 in SW 5.6 mph 17 mph 60.3% 0.00 in 223 W/m2
13:49 45.5 °F 33 °F 29.91 in SW 3 mph 17 mph 61.4% 0.00 in 250 W/m2
13:54 45.9 °F 33.4 °F 29.90 in SW 3.1 mph 17 mph 61.6% 0.00 in 306 W/m2
13:59 46.3 °F 33.3 °F 29.90 in SW 4.3 mph 17 mph 60.5% 0.00 in 221 W/m2
14:04 46.3 °F 33.2 °F 29.90 in SW 3.5 mph 17 mph 60% 0.00 in 195 W/m2
14:09 46.4 °F 33.3 °F 29.90 in SW 1.8 mph 10 mph 60% 0.00 in 230 W/m2
14:14 46.6 °F 33.2 °F 29.89 in SSW 3.5 mph 11 mph 59.4% 0.00 in 373 W/m2
14:19 46.8 °F 33 °F 29.89 in SW 5.4 mph 21 mph 58.4% 0.00 in 258 W/m2
14:24 46.8 °F 32.8 °F 29.89 in SSW 3.9 mph 21 mph 58% 0.00 in 230 W/m2
14:29 47 °F 32.9 °F 29.89 in SW 4.6 mph 21 mph 57.8% 0.00 in 227 W/m2
14:34 47.2 °F 33 °F 29.89 in SW 3.3 mph 21 mph 57.5% 0.00 in 135 W/m2
14:39 47.2 °F 33.1 °F 29.89 in SSW 2.5 mph 7 mph 57.7% 0.00 in 95 W/m2
14:44 47 °F 32.9 °F 29.89 in SW 3.4 mph 11 mph 57.8% 0.00 in 95 W/m2
14:49 46.8 °F 32.7 °F 29.89 in SSW 3.9 mph 11 mph 57.9% 0.00 in 104 W/m2
14:54 46.6 °F 32.6 °F 29.89 in SSW 2.3 mph 11 mph 58.1% 0.00 in 97 W/m2
14:59 46.5 °F 32.6 °F 29.89 in SSW 2.8 mph 11 mph 58.1% 0.00 in 63 W/m2
15:04 46.5 °F 32.2 °F 29.89 in SSW 2.9 mph 11 mph 57.2% 0.00 in 84 W/m2
15:09 46.3 °F 32 °F 29.88 in SSW 2.9 mph 11 mph 57% 0.00 in 98 W/m2
15:14 46.2 °F 31.8 °F 29.88 in SSW 4.4 mph 16 mph 57% 0.00 in 84 W/m2
15:19 46.1 °F 31.6 °F 29.88 in SSW 4 mph 16 mph 56.7% 0.00 in 91 W/m2
15:24 46.1 °F 31.9 °F 29.88 in SSW 2.3 mph 16 mph 57.3% 0.00 in 91 W/m2
15:29 46.3 °F 32 °F 29.89 in SSW 3.8 mph 16 mph 57.3% 0.00 in 84 W/m2
15:34 46.3 °F 31.9 °F 29.89 in SW 3.7 mph 16 mph 57% 0.00 in 44 W/m2
15:39 46.2 °F 32.1 °F 29.89 in SW 2.5 mph 13 mph 57.7% 0.00 in 42 W/m2
15:44 46 °F 32.1 °F 29.89 in SSW 1.9 mph 13 mph 58% 0.00 in 30 W/m2
15:49 45.8 °F 31.9 °F 29.89 in SW 2.4 mph 13 mph 58.1% 0.00 in 23 W/m2
15:54 45.5 °F 32 °F 29.89 in SW 1.2 mph 13 mph 59% 0.00 in 23 W/m2
15:59 45.3 °F 32 °F 29.89 in SW 1.6 mph 13 mph 59.4% 0.00 in 25 W/m2
16:09 45 °F 32.2 °F 29.89 in SW 1.7 mph 6 mph 60.5% 0.00 in 30 W/m2
16:14 45 °F 32.4 °F 29.89 in SW 1 mph 6 mph 61% 0.00 in 26 W/m2
16:19 45 °F 32.4 °F 29.88 in SSW 0.5 mph 6 mph 61% 0.00 in 23 W/m2
16:24 45 °F 32.6 °F 29.88 in SSW 0.2 mph 6 mph 61.6% 0.00 in 21 W/m2
16:29 45 °F 32.9 °F 29.88 in SSW 1 mph 6 mph 62.4% 0.00 in 21 W/m2
16:34 44.9 °F 33.3 °F 29.88 in SSW 0.6 mph 6 mph 63.6% 0.00 in 14 W/m2
16:39 44.7 °F 33.5 °F 29.88 in SSW 1.3 mph 4 mph 64.4% 0.00 in 9 W/m2
16:44 44.6 °F 33.5 °F 29.88 in SSW 0.7 mph 4 mph 65% 0.00 in 9 W/m2
16:49 44.4 °F 33.7 °F 29.88 in SSW 0.5 mph 4 mph 65.9% 0.00 in 5 W/m2
16:54 44.2 °F 33.6 °F 29.88 in SSW 0.5 mph 4 mph 66% 0.00 in 0 W/m2
16:59 44 °F 33.7 °F 29.88 in SSW 0.7 mph 4 mph 66.8% 0.00 in 0 W/m2
17:04 43.8 °F 33.6 °F 29.88 in SSW 0.7 mph 4 mph 67.1% 0.00 in 0 W/m2
17:09 43.6 °F 33.7 °F 29.88 in SSW 1 mph 4 mph 67.8% 0.00 in 0 W/m2
17:14 43.5 °F 33.7 °F 29.89 in SSW 1.2 mph 4 mph 68% 0.00 in 0 W/m2
17:19 43.5 °F 34 °F 29.89 in SSW 0.8 mph 4 mph 69% 0.00 in 0 W/m2
17:24 43.4 °F 33.9 °F 29.89 in SSW 1.2 mph 4 mph 69% 0.00 in 0 W/m2
17:29 43.3 °F 34.1 °F 29.89 in SSW 1.2 mph 4 mph 70% 0.00 in 0 W/m2
17:34 43.2 °F 34.1 °F 29.89 in SSW 1.6 mph 6 mph 70.1% 0.00 in 0 W/m2
17:39 43.2 °F 34.5 °F 29.89 in South 2.2 mph 6 mph 71% 0.00 in 0 W/m2
17:44 43.2 °F 34.4 °F 29.89 in South 1.4 mph 6 mph 71% 0.00 in 0 W/m2
17:49 43.1 °F 34.6 °F 29.89 in South 1.4 mph 6 mph 71.5% 0.00 in 0 W/m2
17:54 43.1 °F 34.7 °F 29.89 in South 1.5 mph 6 mph 72% 0.00 in 0 W/m2
17:59 43 °F 34.6 °F 29.89 in South 1.5 mph 6 mph 72.2% 0.00 in 0 W/m2
18:04 42.9 °F 34.8 °F 29.89 in South 1.9 mph 6 mph 73% 0.00 in 0 W/m2
18:09 42.9 °F 34.8 °F 29.89 in South 1.6 mph 4 mph 73% 0.00 in 0 W/m2
18:14 42.8 °F 34.8 °F 29.89 in South 1.9 mph 5 mph 73% 0.00 in 0 W/m2
18:19 42.7 °F 34.9 °F 29.89 in South 1.8 mph 5 mph 73.6% 0.00 in 0 W/m2
18:24 42.7 °F 35 °F 29.89 in South 1.2 mph 5 mph 74% 0.00 in 0 W/m2
18:29 42.7 °F 35 °F 29.90 in South 1.7 mph 5 mph 74% 0.00 in 0 W/m2
18:34 42.7 °F 35 °F 29.90 in South 2 mph 5 mph 74% 0.00 in 0 W/m2
18:39 42.7 °F 35 °F 29.90 in South 0.8 mph 4 mph 74% 0.00 in 0 W/m2
18:44 42.7 °F 35.1 °F 29.90 in South 0.8 mph 4 mph 74.4% 0.00 in 0 W/m2
18:49 42.6 °F 35.2 °F 29.91 in South 0.3 mph 4 mph 75% 0.00 in 0 W/m2
18:54 42.5 °F 35.2 °F 29.91 in South 0.1 mph 4 mph 75% 0.00 in 0 W/m2
18:59 42.4 °F 35.1 °F 29.91 in South 0.3 mph 4 mph 75% 0.00 in 0 W/m2
19:04 42.4 °F 35 °F 29.91 in South 0.5 mph 4 mph 75% 0.00 in 0 W/m2
19:09 42.3 °F 35.2 °F 29.91 in South 0.6 mph 3 mph 75.9% 0.00 in 0 W/m2
19:14 42.3 °F 35 °F 29.91 in South 0.6 mph 3 mph 75% 0.00 in 0 W/m2
19:19 42.3 °F 34.9 °F 29.92 in South 0.2 mph 3 mph 75% 0.00 in 0 W/m2
19:24 42.2 °F 34.9 °F 29.92 in South 0.9 mph 5 mph 75.2% 0.00 in 0 W/m2
19:29 42.2 °F 35 °F 29.92 in South 0.3 mph 5 mph 75.5% 0.00 in 0 W/m2
19:34 42.1 °F 35.1 °F 29.92 in Calm   5 mph 76% 0.00 in 0 W/m2
19:39 42 °F 35 °F 29.92 in South 0.1 mph 1 mph 76% 0.00 in 0 W/m2
19:44 41.8 °F 34.8 °F 29.92 in South 0.1 mph 1 mph 76% 0.00 in 0 W/m2
19:49 41.6 °F 35 °F 29.92 in Calm   1 mph 77% 0.00 in 0 W/m2
19:54 41.5 °F 34.9 °F 29.92 in Calm   1 mph 77% 0.00 in 0 W/m2
19:59 41.5 °F 34.8 °F 29.92 in South 0.3 mph 3 mph 77% 0.00 in 0 W/m2
20:09 41.3 °F 34.7 °F 29.91 in Calm     77% 0.00 in 0 W/m2
20:14 41.2 °F 34.9 °F 29.91 in South 0.3 mph 2 mph 77.8% 0.00 in 0 W/m2
20:19 41.1 °F 34.5 °F 29.91 in South 0.6 mph 3 mph 77% 0.00 in 0 W/m2
20:24 41 °F 34.4 °F 29.92 in South 1 mph 3 mph 77% 0.00 in 0 W/m2
20:29 41 °F 34.3 °F 29.92 in South 1.4 mph 3 mph 77% 0.00 in 0 W/m2
20:34 40.9 °F 34.3 °F 29.91 in South 1.6 mph 4 mph 77% 0.00 in 0 W/m2
20:39 40.9 °F 34.5 °F 29.91 in SSW 2.1 mph 4 mph 77.7% 0.00 in 0 W/m2
20:44 40.9 °F 34.6 °F 29.92 in SSW 1.8 mph 4 mph 78% 0.00 in 0 W/m2
20:49 40.9 °F 34.6 °F 29.92 in SSW 2.3 mph 4 mph 78% 0.00 in 0 W/m2
20:54 40.9 °F 34.6 °F 29.92 in SSW 2 mph 4 mph 78% 0.00 in 0 W/m2
20:59 40.9 °F 34.6 °F 29.92 in SSW 1.8 mph 5 mph 78% 0.00 in 0 W/m2
21:04 40.9 °F 34.6 °F 29.91 in SSW 0.8 mph 5 mph 78% 0.00 in 0 W/m2
21:09 40.9 °F 34.3 °F 29.92 in SSW 1.3 mph 4 mph 77.1% 0.00 in 0 W/m2
21:14 40.9 °F 34.3 °F 29.92 in SSW 1.6 mph 4 mph 77% 0.00 in 0 W/m2
21:19 40.9 °F 34.3 °F 29.92 in SSW 1.4 mph 4 mph 77% 0.00 in 0 W/m2
21:24 41 °F 34.3 °F 29.92 in SSW 1.4 mph 4 mph 77% 0.00 in 0 W/m2
21:29 41 °F 34.8 °F 29.92 in SSW 0.8 mph 4 mph 78.3% 0.00 in 0 W/m2
21:34 41 °F 34.4 °F 29.92 in SSW 0.7 mph 4 mph 77% 0.00 in 0 W/m2
21:39 41 °F 34.4 °F 29.92 in SSW 1.2 mph 4 mph 77% 0.00 in 0 W/m2
21:44 41 °F 34.3 °F 29.92 in SSW 0.7 mph 4 mph 77% 0.00 in 0 W/m2
21:49 40.9 °F 34.3 °F 29.92 in SSW 1.1 mph 4 mph 77% 0.00 in 0 W/m2
21:54 40.9 °F 34.3 °F 29.92 in SSW 0.1 mph 4 mph 77% 0.00 in 0 W/m2
21:59 40.8 °F 34.2 °F 29.92 in Calm   4 mph 77% 0.00 in 0 W/m2
22:04 40.8 °F 34.2 °F 29.92 in SSW 0.4 mph 4 mph 77% 0.00 in 0 W/m2
22:09 40.9 °F 34.3 °F 29.92 in SSW 0.1 mph 2 mph 77% 0.00 in 0 W/m2
22:14 41 °F 34.9 °F 29.92 in Calm   2 mph 78.6% 0.00 in 0 W/m2
22:19 41.1 °F 34.4 °F 29.92 in Calm   3 mph 77% 0.00 in 0 W/m2
22:24 41 °F 34.4 °F 29.92 in Calm   3 mph 77% 0.00 in 0 W/m2
22:29 41 °F 34.4 °F 29.92 in Calm   3 mph 77% 0.00 in 0 W/m2
22:34 41.1 °F 34.4 °F 29.92 in Calm   3 mph 77% 0.00 in 0 W/m2
22:39 41.1 °F 34.5 °F 29.91 in Calm     77% 0.00 in 0 W/m2
22:44 41.1 °F 34.4 °F 29.91 in Calm     77% 0.00 in 0 W/m2
22:49 41 °F 34.7 °F 29.91 in Calm     77.9% 0.00 in 0 W/m2
22:54 41.1 °F 34.8 °F 29.92 in Calm     78% 0.00 in 0 W/m2
22:59 41.1 °F 34.8 °F 29.91 in Calm     78% 0.00 in 0 W/m2
23:00 41 °F 34.7 °F 29.91 in Calm     78% 0.00 in 0 W/m2
23:09 41 °F 34.7 °F 29.91 in Calm     78% 0.00 in 0 W/m2
23:14 41.1 °F 34.7 °F 29.92 in Calm     78% 0.00 in 0 W/m2
23:19 41 °F 34.7 °F 29.92 in Calm     78% 0.00 in 0 W/m2
23:24 41 °F 34.6 °F 29.92 in Calm     78% 0.00 in 0 W/m2
23:29 40.9 °F 34.6 °F 29.92 in Calm     78% 0.00 in 0 W/m2
23:34 40.8 °F 34.5 °F 29.92 in Calm     78% 0.00 in 0 W/m2
23:39 40.7 °F 34.5 °F 29.92 in SSW 0.1 mph 1 mph 78.3% 0.00 in 0 W/m2
23:44 40.8 °F 34.7 °F 29.92 in Calm   1 mph 78.7% 0.00 in 0 W/m2
23:49 40.9 °F 34.6 °F 29.91 in Calm   1 mph 78% 0.00 in 0 W/m2
23:54 41 °F 34.7 °F 29.91 in Calm   1 mph 78% 0.00 in 0 W/m2
23:59 41 °F 34.5 °F 29.91 in Calm   1 mph 77.4% 0.00 in 0 W/m2
Hartford County Weather
Compliments of Weather Underground - 4 mb